Time;durP1;ratioP1;P1;durP2;ratioP2;P2;SDS_P1;SDS_P2;PMS_P1;PMS_P2;Temp;Humidity;BMP_temperature;BMP_pressure;BME280_temperature;BME280_humidity;BME280_pressure;Samples;Min_cycle;Max_cycle;Signal;HPM_P1;HPM_P2
2021/12/19 00:00:39;;;;;;;1999.90;999.90;;;;;;;9.58;73.09;102222.00;15606700;28;20057;-64
2021/12/19 00:08:36;;;;;;;1999.90;999.90;;;;;;;9.64;72.73;102201.34;15577546;28;20045;-63
2021/12/19 00:16:09;;;;;;;1999.90;999.90;;;;;;;9.75;72.37;102202.91;15588310;28;20145;-64
2021/12/19 00:23:49;;;;;;;1999.90;999.90;;;;;;;9.78;72.29;102191.16;15560667;28;20136;-62
2021/12/19 00:31:24;;;;;;;1999.90;999.90;;;;;;;9.88;71.74;102182.72;15555960;28;20300;-62
2021/12/19 00:39:01;;;;;;;1999.90;999.90;;;;;;;9.41;73.05;102172.25;15556204;28;20204;-62
2021/12/19 00:46:47;;;;;;;1999.90;999.90;;;;;;;9.74;72.25;102165.84;15569971;28;20050;-63
2021/12/19 00:54:31;;;;;;;1999.90;999.90;;;;;;;9.67;72.09;102158.94;15585375;28;20510;-63
2021/12/19 01:02:07;;;;;;;1999.90;999.90;;;;;;;9.29;72.46;102149.50;15604963;28;20064;-63
2021/12/19 01:09:41;;;;;;;1999.90;999.90;;;;;;;9.57;72.29;102159.84;15578028;28;20104;-64
2021/12/19 01:17:24;;;;;;;1999.90;999.90;;;;;;;9.69;71.87;102142.75;15611799;28;20429;-64
2021/12/19 01:24:58;;;;;;;1999.90;999.90;;;;;;;9.58;72.50;102138.38;15567392;28;20045;-62
2021/12/19 01:32:30;;;;;;;1999.90;999.90;;;;;;;9.55;72.91;102129.50;15563997;28;20045;-63
2021/12/19 01:40:07;;;;;;;1999.90;999.90;;;;;;;9.28;73.97;102106.06;15588212;28;20125;-64
2021/12/19 01:47:41;;;;;;;1999.90;999.90;;;;;;;9.38;73.17;102081.72;15582082;28;20045;-63
2021/12/19 01:55:35;;;;;;;1999.90;999.90;;;;;;;9.28;73.30;102067.06;15602662;28;20053;-62
2021/12/19 02:03:11;;;;;;;1999.90;999.90;;;;;;;9.15;73.57;102074.94;15580157;28;20042;-63
2021/12/19 02:10:48;;;;;;;1999.90;999.90;;;;;;;9.38;73.35;102069.72;15601769;28;20037;-64
2021/12/19 02:18:22;;;;;;;1999.90;999.90;;;;;;;9.42;72.86;102059.69;15621466;28;20402;-62
2021/12/19 02:26:21;;;;;;;1999.90;999.90;;;;;;;9.31;73.33;102033.03;15591611;28;20061;-63
2021/12/19 02:34:02;;;;;;;1999.90;999.90;;;;;;;9.19;73.94;102022.28;15593402;28;20037;-63
2021/12/19 02:49:26;;;;;;;1999.90;999.90;;;;;;;9.29;72.97;102050.06;15578037;28;20490;-62
2021/12/19 02:57:40;;;;;;;1999.90;999.90;;;;;;;9.35;73.08;102036.88;15597225;28;20077;-62
2021/12/19 03:05:14;;;;;;;1999.90;999.90;;;;;;;9.40;72.62;102025.72;15559678;28;20053;-63
2021/12/19 03:13:05;;;;;;;1999.90;999.90;;;;;;;9.28;73.39;102023.31;15544549;28;20077;-63
2021/12/19 03:20:42;;;;;;;1999.90;999.90;;;;;;;9.31;73.16;101989.31;15560382;28;20088;-62
2021/12/19 03:28:18;;;;;;;1999.90;999.90;;;;;;;9.17;73.35;101978.03;15558966;28;20125;-62
2021/12/19 03:35:51;;;;;;;1999.90;999.90;;;;;;;9.16;73.04;101967.16;15543661;28;20045;-63
2021/12/19 03:43:25;;;;;;;1999.90;999.90;;;;;;;9.30;72.50;101968.16;15580288;28;20060;-65
2021/12/19 03:50:58;;;;;;;1999.90;999.90;;;;;;;9.28;72.94;101973.19;15594318;28;20128;-63
2021/12/19 03:58:32;;;;;;;;;;;;;;;9.20;73.08;101960.72;15582003;28;20470;-63
2021/12/19 04:06:25;;;;;;;1999.90;999.90;;;;;;;9.38;72.12;101956.38;15566867;28;19921;-64
2021/12/19 04:14:05;;;;;;;1999.90;999.90;;;;;;;9.39;72.26;101952.44;15573858;28;20077;-63
2021/12/19 04:21:37;;;;;;;1999.90;999.90;;;;;;;9.46;71.75;101952.06;15583424;28;20064;-63
2021/12/19 04:29:15;;;;;;;1999.90;999.90;;;;;;;9.50;71.76;101950.38;15541409;28;20042;-62
2021/12/19 04:36:53;;;;;;;1999.90;999.90;;;;;;;9.23;72.59;101942.56;15565778;28;20046;-65
2021/12/19 04:44:45;;;;;;;1999.90;999.90;;;;;;;9.26;72.51;101964.25;15556185;28;20041;-65
2021/12/19 04:52:51;;;;;;;1999.90;999.90;;;;;;;9.30;72.51;101951.44;15575797;28;20046;-63
2021/12/19 05:00:34;;;;;;;1999.90;999.90;;;;;;;9.49;72.38;101941.19;15560076;28;20039;-63
2021/12/19 05:16:07;;;;;;;1999.90;999.90;;;;;;;9.13;73.51;101926.81;15564400;28;20045;-64
2021/12/19 05:24:02;;;;;;;1999.90;999.90;;;;;;;9.58;71.50;101938.56;15582268;28;20454;-64
2021/12/19 05:31:34;;;;;;;1999.90;999.90;;;;;;;9.43;72.54;101953.50;15605915;28;20037;-64
2021/12/19 05:47:23;;;;;;;1999.90;999.90;;;;;;;9.49;72.75;101921.69;15595130;28;20057;-64
2021/12/19 05:55:14;;;;;;;1999.90;999.90;;;;;;;9.42;72.29;101918.41;15590653;28;20590;-65
2021/12/19 06:02:47;;;;;;;1999.90;999.90;;;;;;;9.28;72.38;101919.44;15603559;28;20042;-65
2021/12/19 06:10:21;;;;;;;1999.90;999.90;;;;;;;9.58;70.51;101912.66;15560958;28;20268;-64
2021/12/19 06:17:58;;;;;;;1999.90;999.90;;;;;;;9.77;70.02;101922.72;15570696;28;20053;-65
2021/12/19 06:25:33;;;;;;;1999.90;999.90;;;;;;;9.46;71.07;101913.91;15575967;28;20076;-65
2021/12/19 06:33:08;;;;;;;1999.90;999.90;;;;;;;9.33;72.75;101899.84;15545499;28;20045;-65
2021/12/19 06:40:41;;;;;;;1999.90;999.90;;;;;;;9.35;72.58;101889.25;15562151;28;20081;-65
2021/12/19 06:48:15;;;;;;;1999.90;999.90;;;;;;;9.30;73.29;101880.97;15566545;28;20128;-65
2021/12/19 06:56:07;;;;;;;1999.90;999.90;;;;;;;9.15;74.50;101887.50;15593998;28;20538;-65
2021/12/19 07:03:41;;;;;;;1999.90;999.90;;;;;;;9.29;73.33;101863.41;15588312;28;20042;-66
2021/12/19 07:11:20;;;;;;;1999.90;999.90;;;;;;;9.06;73.90;101870.63;15548960;28;20042;-64
2021/12/19 07:19:03;;;;;;;1999.90;999.90;;;;;;;9.09;73.82;101863.66;15581159;28;20046;-67
2021/12/19 07:26:59;;;;;;;1999.90;999.90;;;;;;;9.25;72.59;101870.69;15558025;28;20082;-66
2021/12/19 07:34:37;;;;;;;1999.90;999.90;;;;;;;9.21;71.81;101853.75;15598680;28;20045;-66
2021/12/19 07:42:11;;;;;;;1999.90;999.90;;;;;;;9.20;71.72;101834.56;15587944;28;20042;-62
2021/12/19 07:49:48;;;;;;;1999.90;999.90;;;;;;;9.54;71.81;101845.53;15595090;28;20050;-63
2021/12/19 07:57:20;;;;;;;1999.90;999.90;;;;;;;9.04;73.54;101833.88;15563285;28;20096;-63
2021/12/19 08:04:54;;;;;;;1999.90;999.90;;;;;;;9.04;71.97;101824.72;15596193;28;20048;-63
2021/12/19 08:12:34;;;;;;;1999.90;999.90;;;;;;;9.24;71.00;101816.13;15567951;28;20087;-63
2021/12/19 08:20:19;;;;;;;1999.90;999.90;;;;;;;9.19;72.69;101805.06;15574242;28;20056;-64
2021/12/19 08:27:52;;;;;;;1999.90;999.90;;;;;;;9.08;72.76;101795.16;15578427;28;20354;-65
2021/12/19 08:35:26;;;;;;;1999.90;999.90;;;;;;;8.95;74.60;101778.03;15556802;28;20583;-64
2021/12/19 08:43:00;;;;;;;1999.90;999.90;;;;;;;8.77;76.05;101789.94;15560550;28;20134;-63
2021/12/19 08:50:38;;;;;;;1999.90;999.90;;;;;;;8.87;75.27;101786.22;15584530;28;20545;-65
2021/12/19 08:58:11;;;;;;;1999.90;999.90;;;;;;;9.01;74.59;101761.28;15583356;28;20128;-63
2021/12/19 09:05:52;;;;;;;1999.90;999.90;;;;;;;9.03;75.05;101782.13;15566292;28;20395;-65
2021/12/19 09:13:26;;;;;;;1999.90;999.90;;;;;;;8.82;77.58;101761.22;15585670;28;20128;-63
2021/12/19 09:21:00;;;;;;;1999.90;999.90;;;;;;;8.80;78.60;101774.59;15594011;28;20271;-64
2021/12/19 09:28:33;;;;;;;1999.90;999.90;;;;;;;8.98;78.81;101757.13;15559129;28;20528;-64
2021/12/19 09:36:08;;;;;;;1999.90;999.90;;;;;;;8.89;79.08;101743.03;15580137;28;20100;-63
2021/12/19 09:43:44;;;;;;;1999.90;999.90;;;;;;;8.76;79.66;101735.41;15594493;28;20307;-63
2021/12/19 09:51:19;;;;;;;1999.90;999.90;;;;;;;8.77;79.97;101739.84;15548176;28;20038;-65
2021/12/19 09:58:54;;;;;;;1999.90;999.90;;;;;;;8.71;79.72;101724.31;15601758;28;20052;-63
2021/12/19 10:06:30;;;;;;;1999.90;999.90;;;;;;;8.92;79.27;101708.22;15582460;28;20103;-64
2021/12/19 10:14:03;;;;;;;1999.90;999.90;;;;;;;8.81;78.97;101699.16;15596305;28;20065;-65
2021/12/19 10:21:37;;;;;;;1999.90;999.90;;;;;;;8.74;80.15;101672.81;15591836;28;20052;-64
2021/12/19 10:29:15;;;;;;;1999.90;999.90;;;;;;;8.97;79.25;101660.84;15555853;28;20513;-65
2021/12/19 10:36:49;;;;;;;1999.90;999.90;;;;;;;8.84;78.71;101659.59;15572653;28;20455;-65
2021/12/19 10:52:30;;;;;;;1999.90;999.90;;;;;;;8.83;78.74;101641.22;15594806;28;20103;-66
2021/12/19 11:00:29;;;;;;;1999.90;999.90;;;;;;;8.89;78.68;101647.56;15548956;28;20038;-67
2021/12/19 11:08:29;;;;;;;1999.90;999.90;;;;;;;8.95;78.38;101649.97;15553129;28;20111;-65
2021/12/19 11:16:11;;;;;;;1999.90;999.90;;;;;;;9.19;77.86;101637.97;15609538;28;20072;-65
2021/12/19 11:24:19;;;;;;;1999.90;999.90;;;;;;;9.29;78.45;101634.19;15560208;28;20430;-65
2021/12/19 11:31:58;;;;;;;1999.90;999.90;;;;;;;9.03;79.10;101603.09;15587550;28;20049;-65
2021/12/19 11:39:35;;;;;;;1999.90;999.90;;;;;;;8.87;80.11;101589.44;15566493;28;20087;-63
2021/12/19 11:47:16;;;;;;;1999.90;999.90;;;;;;;9.10;80.35;101557.06;15571088;28;20059;-64
2021/12/19 11:55:19;;;;;;;1999.90;999.90;;;;;;;9.23;80.02;101549.88;15575407;28;20042;-65
2021/12/19 12:03:24;;;;;;;1999.90;999.90;;;;;;;9.08;80.29;101553.75;15607623;28;20386;-66
2021/12/19 12:11:13;;;;;;;1999.90;999.90;;;;;;;9.42;79.61;101549.84;15585245;28;20045;-65
2021/12/19 12:18:56;;;;;;;1999.90;999.90;;;;;;;9.21;80.08;101530.69;15597006;28;20107;-63
2021/12/19 12:26:36;;;;;;;1999.90;999.90;;;;;;;9.23;80.72;101514.50;15570395;28;20073;-62
2021/12/19 12:34:12;;;;;;;1999.90;999.90;;;;;;;9.33;80.44;101498.75;15593537;28;20037;-64
2021/12/19 12:41:59;;;;;;;1999.90;999.90;;;;;;;9.02;81.81;101499.28;15612581;28;20049;-63
2021/12/19 12:49:34;;;;;;;1999.90;999.90;;;;;;;9.03;81.90;101472.25;15593291;28;20077;-63
2021/12/19 12:57:11;;;;;;;1999.90;999.90;;;;;;;9.03;82.31;101477.81;15584194;28;20050;-64
2021/12/19 13:04:49;;;;;;;1999.90;999.90;;;;;;;8.96;82.48;101461.50;15560878;28;20530;-63
2021/12/19 13:12:27;;;;;;;1999.90;999.90;;;;;;;8.89;82.82;101456.34;15604463;28;20050;-65
2021/12/19 13:20:04;;;;;;;1999.90;999.90;;;;;;;8.74;83.41;101452.97;15551332;28;20046;-65
2021/12/19 13:27:40;;;;;;;1999.90;999.90;;;;;;;8.96;83.43;101454.00;15643094;28;20699;-65
2021/12/19 13:35:18;;;;;;;1999.90;999.90;;;;;;;9.19;82.27;101448.59;15550712;28;20057;-65
2021/12/19 13:42:55;;;;;;;1999.90;999.90;;;;;;;8.93;83.53;101448.19;15605171;28;20049;-62
2021/12/19 13:50:38;;;;;;;1999.90;999.90;;;;;;;9.16;82.79;101435.25;15585494;28;20390;-62
2021/12/19 13:58:17;;;;;;;1999.90;999.90;;;;;;;8.79;84.12;101433.41;15579826;28;20042;-62
2021/12/19 14:05:56;;;;;;;1999.90;999.90;;;;;;;8.99;84.10;101412.75;15606758;28;20033;-63
2021/12/19 14:13:33;;;;;;;1999.90;999.90;;;;;;;8.91;83.98;101412.31;15584559;28;20414;-63
2021/12/19 14:21:06;;;;;;;1999.90;999.90;;;;;;;8.83;84.36;101410.22;15551221;28;20410;-63
2021/12/19 14:28:49;;;;;;;1999.90;999.90;;;;;;;9.00;83.43;101404.09;15590666;28;20054;-62
2021/12/19 14:36:28;;;;;;;1999.90;999.90;;;;;;;9.02;83.13;101418.53;15580196;28;20132;-63
2021/12/19 14:44:04;;;;;;;1999.90;999.90;;;;;;;9.08;83.38;101422.06;15616227;28;20282;-62
2021/12/19 14:51:36;;;;;;;1999.90;999.90;;;;;;;8.96;83.23;101428.09;15616888;28;20133;-63
2021/12/19 14:59:11;;;;;;;1999.90;999.90;;;;;;;9.04;83.15;101424.63;15558048;28;20461;-63
2021/12/19 15:06:47;;;;;;;1999.90;999.90;;;;;;;8.96;83.71;101426.16;15608659;28;20506;-64
2021/12/19 15:14:21;;;;;;;1999.90;999.90;;;;;;;9.07;82.82;101426.81;15597742;28;20080;-63
2021/12/19 15:21:53;;;;;;;1999.90;999.90;;;;;;;9.01;82.96;101444.72;15576072;28;20041;-64
2021/12/19 15:29:27;;;;;;;1999.90;999.90;;;;;;;8.80;83.79;101435.06;15577174;28;20073;-64
2021/12/19 15:37:00;;;;;;;1999.90;999.90;;;;;;;9.02;82.47;101435.25;15599176;28;20060;-64
2021/12/19 15:44:34;;;;;;;1999.90;999.90;;;;;;;8.98;82.68;101445.34;15596531;28;20120;-64
2021/12/19 15:52:10;;;;;;;1999.90;999.90;;;;;;;8.83;82.86;101443.63;15560318;28;20096;-64
2021/12/19 15:59:45;;;;;;;1999.90;999.90;;;;;;;8.84;83.24;101458.38;15599858;28;20041;-63
2021/12/19 16:07:19;;;;;;;1999.90;999.90;;;;;;;8.91;82.94;101458.81;15609855;28;20115;-62
2021/12/19 16:14:53;;;;;;;1999.90;999.90;;;;;;;9.18;81.77;101450.56;15598516;28;20041;-64
2021/12/19 16:22:27;;;;;;;1999.90;999.90;;;;;;;8.84;82.54;101455.59;15572412;28;20041;-62
2021/12/19 16:30:01;;;;;;;1999.90;999.90;;;;;;;9.29;81.04;101473.47;15587450;28;20057;-62
2021/12/19 16:37:34;;;;;;;1999.90;999.90;;;;;;;9.00;81.77;101482.06;15602145;28;20120;-63
2021/12/19 16:45:09;;;;;;;1999.90;999.90;;;;;;;9.12;81.09;101474.03;15572933;28;20069;-63
2021/12/19 16:52:44;;;;;;;1999.90;999.90;;;;;;;8.61;81.58;101480.44;15582349;28;20470;-63
2021/12/19 17:00:21;;;;;;;1999.90;999.90;;;;;;;8.77;80.73;101494.94;15568378;28;20041;-63
2021/12/19 17:07:54;;;;;;;1999.90;999.90;;;;;;;8.79;80.90;101501.03;15571412;28;20042;-63
2021/12/19 17:15:30;;;;;;;1999.90;999.90;;;;;;;8.94;81.06;101488.81;15590029;28;20050;-63
2021/12/19 17:23:03;;;;;;;1999.90;999.90;;;;;;;8.68;80.55;101478.09;15568459;28;20032;-63
2021/12/19 17:30:37;;;;;;;1999.90;999.90;;;;;;;8.72;80.39;101485.84;15579363;28;20050;-62
2021/12/19 17:38:10;;;;;;;1999.90;999.90;;;;;;;8.49;80.61;101484.81;15603115;28;20044;-65
2021/12/19 17:45:44;;;;;;;1999.90;999.90;;;;;;;8.20;81.00;101498.78;15596386;28;20041;-63
2021/12/19 17:53:22;;;;;;;1999.90;999.90;;;;;;;8.45;80.08;101495.72;15604738;28;20403;-64
2021/12/19 18:00:58;;;;;;;1999.90;999.90;;;;;;;8.09;80.99;101498.91;15569033;28;20045;-64
2021/12/19 18:08:31;;;;;;;1999.90;999.90;;;;;;;8.21;80.18;101511.56;15597884;28;20126;-63
2021/12/19 18:16:06;;;;;;;1999.90;999.90;;;;;;;7.97;80.95;101509.63;15545516;28;20406;-62
2021/12/19 18:23:40;;;;;;;1999.90;999.90;;;;;;;8.01;81.82;101538.47;15569068;28;20069;-62
2021/12/19 18:31:14;;;;;;;;;;;;;;;8.34;80.56;101536.75;15615274;28;20056;-62
2021/12/19 18:38:48;;;;;;;1999.90;999.90;;;;;;;7.95;80.85;101549.97;15579064;28;19926;-66
2021/12/19 18:46:32;;;;;;;1999.90;999.90;;;;;;;7.73;81.57;101559.66;15586038;28;20042;-62
2021/12/19 18:54:11;;;;;;;1999.90;999.90;;;;;;;8.01;80.15;101576.56;15611280;28;20045;-62
2021/12/19 19:01:59;;;;;;;1999.90;999.90;;;;;;;8.04;80.72;101592.69;15587838;28;20045;-62
2021/12/19 19:09:32;;;;;;;1999.90;999.90;;;;;;;8.01;80.07;101591.28;15611998;28;20050;-64
2021/12/19 19:17:15;;;;;;;1999.90;999.90;;;;;;;7.93;79.41;101599.47;15604106;28;20049;-62
2021/12/19 19:24:48;;;;;;;1999.90;999.90;;;;;;;7.56;79.61;101613.97;15578425;28;20035;-64
2021/12/19 19:32:41;;;;;;;1999.90;999.90;;;;;;;7.67;79.36;101635.81;15567178;28;20038;-63
2021/12/19 19:40:29;;;;;;;1999.90;999.90;;;;;;;7.75;78.44;101635.19;15561652;28;20053;-63
2021/12/19 19:55:54;;;;;;;1999.90;999.90;;;;;;;7.17;79.45;101650.91;15569288;28;20042;-63
2021/12/19 20:03:30;;;;;;;1999.90;999.90;;;;;;;7.08;79.15;101659.03;15587367;28;20513;-60
2021/12/19 20:11:05;;;;;;;1999.90;999.90;;;;;;;6.69;78.39;101650.66;15619545;28;20084;-62
2021/12/19 20:18:42;;;;;;;1999.90;999.90;;;;;;;6.32;74.54;101671.28;15593811;28;20041;-62
2021/12/19 20:26:15;;;;;;;1999.90;999.90;;;;;;;6.18;72.77;101672.16;15607349;28;20088;-63
2021/12/19 20:33:49;;;;;;;1999.90;999.90;;;;;;;6.06;72.45;101669.69;15593899;28;20041;-64
2021/12/19 20:41:25;;;;;;;1999.90;999.90;;;;;;;5.81;71.83;101684.34;15603072;28;20041;-64
2021/12/19 20:49:06;;;;;;;1999.90;999.90;;;;;;;5.74;70.81;101673.56;15598998;28;20068;-64
2021/12/19 20:56:40;;;;;;;1999.90;999.90;;;;;;;5.54;71.43;101678.28;15552076;28;20042;-62
2021/12/19 21:04:21;;;;;;;1999.90;999.90;;;;;;;5.44;71.06;101701.25;15555921;28;20053;-62
2021/12/19 21:11:59;;;;;;;1999.90;999.90;;;;;;;5.59;70.28;101692.94;15600222;28;20087;-63
2021/12/19 21:19:34;;;;;;;1999.90;999.90;;;;;;;5.48;71.02;101699.59;15593787;28;20060;-63
2021/12/19 21:27:11;;;;;;;1999.90;999.90;;;;;;;5.56;69.68;101703.75;15602014;28;20478;-63
2021/12/19 21:34:49;;;;;;;1999.90;999.90;;;;;;;5.55;69.01;101715.94;15599997;28;20073;-63
2021/12/19 21:42:22;;;;;;;1999.90;999.90;;;;;;;5.40;69.94;101717.56;15588297;28;20522;-60
2021/12/19 21:49:56;;;;;;;1999.90;999.90;;;;;;;5.15;70.33;101712.81;15614513;28;20064;-63
2021/12/19 21:57:29;;;;;;;1999.90;999.90;;;;;;;4.91;70.57;101726.28;15589751;28;20096;-62
2021/12/19 22:05:03;;;;;;;1999.90;999.90;;;;;;;4.74;71.01;101738.66;15591900;28;20410;-63
2021/12/19 22:12:43;;;;;;;1999.90;999.90;;;;;;;4.68;70.26;101725.88;15616395;28;20041;-63
2021/12/19 22:20:36;;;;;;;1999.90;999.90;;;;;;;4.69;69.22;101731.19;15604409;28;20096;-65
2021/12/19 22:28:17;;;;;;;1999.90;999.90;;;;;;;4.56;70.26;101726.09;15566876;28;20045;-60
2021/12/19 22:35:57;;;;;;;1999.90;999.90;;;;;;;4.51;69.68;101737.16;15550740;28;20029;-59
2021/12/19 22:43:33;;;;;;;1999.90;999.90;;;;;;;4.54;68.35;101739.38;15578751;28;20041;-63
2021/12/19 22:51:08;;;;;;;1999.90;999.90;;;;;;;4.23;69.50;101736.41;15585158;28;20138;-63
2021/12/19 22:58:41;;;;;;;1999.90;999.90;;;;;;;4.20;69.08;101727.84;15584109;28;20053;-63
2021/12/19 23:06:15;;;;;;;1999.90;999.90;;;;;;;4.34;68.54;101737.31;15588906;28;20446;-61
2021/12/19 23:13:53;;;;;;;1999.90;999.90;;;;;;;4.34;68.60;101727.09;15591071;28;20132;-61
2021/12/19 23:21:30;;;;;;;1999.90;999.90;;;;;;;4.20;68.77;101725.91;15568434;28;20069;-63
2021/12/19 23:29:42;;;;;;;1999.90;999.90;;;;;;;4.07;69.41;101715.31;15605986;28;20050;-63
2021/12/19 23:37:24;;;;;;;1999.90;999.90;;;;;;;4.24;69.23;101729.78;15594947;28;20510;-63
2021/12/19 23:52:50;;;;;;;1999.90;999.90;;;;;;;3.98;68.52;101728.78;15606072;28;20411;-64
